Time;durP1;ratioP1;P1;durP2;ratioP2;P2;SDS_P1;SDS_P2;PMS_P1;PMS_P2;Temp;Humidity;BMP_temperature;BMP_pressure;BME280_temperature;BME280_humidity;BME280_pressure;Samples;Min_cycle;Max_cycle;Signal;HPM_P1;HPM_P2
2023/08/27 00:01:23;;;;;;;4.17;3.97;;;17.50;64.60;;;;;;6193176;28;20235;-79
2023/08/27 00:04:26;;;;;;;3.43;3.30;;;17.50;64.70;;;;;;6201044;28;20238;-77
2023/08/27 00:07:29;;;;;;;3.80;3.60;;;17.40;64.70;;;;;;6202767;28;20336;-79
2023/08/27 00:10:34;;;;;;;5.00;4.70;;;17.40;64.90;;;;;;6196151;28;20266;-76
2023/08/27 00:13:37;;;;;;;4.90;4.70;;;17.30;65.20;;;;;;6182297;28;20247;-77
2023/08/27 00:16:40;;;;;;;5.30;5.00;;;17.20;65.30;;;;;;6185911;28;20239;-79
2023/08/27 00:19:43;;;;;;;5.60;5.30;;;17.20;65.70;;;;;;6202843;28;20338;-78
2023/08/27 00:22:46;;;;;;;4.87;4.67;;;17.10;65.80;;;;;;6188976;28;20232;-78
2023/08/27 00:25:51;;;;;;;4.70;4.40;;;17.10;65.90;;;;;;6203432;28;20329;-77
2023/08/27 00:28:55;;;;;;;4.97;4.67;;;17.00;65.90;;;;;;6209846;28;20994;-78
2023/08/27 00:31:58;;;;;;;5.20;4.80;;;17.00;66.00;;;;;;6211010;28;20773;-78
2023/08/27 00:35:06;;;;;;;4.70;4.50;;;17.00;66.20;;;;;;6210010;28;20239;-76
2023/08/27 00:38:09;;;;;;;4.63;4.43;;;16.90;66.20;;;;;;6204368;28;20723;-78
2023/08/27 00:41:14;;;;;;;4.67;4.40;;;16.90;66.50;;;;;;6200881;28;20227;-77
2023/08/27 00:44:17;;;;;;;4.77;4.53;;;16.80;66.80;;;;;;6194251;28;20258;-77
2023/08/27 00:47:20;;;;;;;4.83;4.53;;;16.80;67.00;;;;;;6199397;28;20228;-79
2023/08/27 00:50:25;;;;;;;5.33;5.03;;;16.70;67.20;;;;;;6202533;28;20370;-77
2023/08/27 00:53:28;;;;;;;4.70;4.50;;;16.70;67.40;;;;;;6203129;28;20581;-78
2023/08/27 00:56:33;;;;;;;4.57;4.37;;;16.60;67.60;;;;;;6216425;28;20293;-76
2023/08/27 00:59:37;;;;;;;5.13;4.83;;;16.60;67.80;;;;;;6205562;28;20243;-79
2023/08/27 01:02:42;;;;;;;4.53;4.33;;;16.50;68.00;;;;;;6213054;28;20234;-76
2023/08/27 01:05:46;;;;;;;4.73;4.53;;;16.50;68.20;;;;;;6213096;28;20287;-79
2023/08/27 01:08:56;;;;;;;4.73;4.53;;;16.50;68.30;;;;;;6206709;28;20255;-79
2023/08/27 01:12:09;;;;;;;4.67;4.47;;;16.40;68.50;;;;;;6202199;28;20243;-77
2023/08/27 01:15:13;;;;;;;4.93;4.63;;;16.40;68.70;;;;;;6201995;28;20232;-78
2023/08/27 01:18:16;;;;;;;4.37;4.17;;;16.40;68.60;;;;;;6201988;28;20241;-78
2023/08/27 01:21:21;;;;;;;4.70;4.40;;;16.40;68.70;;;;;;6214929;28;20844;-78
2023/08/27 01:24:24;;;;;;;4.70;4.43;;;16.40;68.80;;;;;;6208152;28;20600;-78
2023/08/27 01:27:30;;;;;;;4.37;4.17;;;16.30;68.90;;;;;;6212068;28;20242;-79
2023/08/27 01:30:40;;;;;;;4.93;4.63;;;16.30;69.10;;;;;;6212585;28;20235;-79
2023/08/27 01:33:45;;;;;;;4.57;4.37;;;16.40;69.10;;;;;;6193206;28;20240;-78
2023/08/27 01:36:50;;;;;;;4.67;4.47;;;16.30;69.40;;;;;;6210453;28;20286;-79
2023/08/27 01:39:59;;;;;;;4.30;4.20;;;16.30;69.40;;;;;;6208517;28;20240;-78
2023/08/27 01:43:02;;;;;;;4.37;4.17;;;16.40;69.50;;;;;;6205414;28;20248;-77
2023/08/27 01:46:05;;;;;;;5.00;4.70;;;16.30;69.50;;;;;;6211236;28;20240;-80
2023/08/27 01:49:08;;;;;;;5.17;4.93;;;16.40;69.50;;;;;;6203908;28;20818;-79
2023/08/27 01:52:12;;;;;;;4.80;4.70;;;16.40;69.50;;;;;;6210715;28;20232;-79
2023/08/27 01:55:15;;;;;;;4.67;4.37;;;16.40;69.60;;;;;;6210468;28;20235;-78
2023/08/27 01:58:18;;;;;;;5.10;4.87;;;16.40;69.70;;;;;;6210918;28;20744;-78
2023/08/27 02:01:22;;;;;;;4.80;4.60;;;16.40;69.80;;;;;;6203950;28;20274;-78
2023/08/27 02:04:25;;;;;;;5.00;4.70;;;16.40;69.80;;;;;;6197343;28;20236;-79
2023/08/27 02:07:29;;;;;;;5.43;5.10;;;16.40;69.80;;;;;;6215077;28;20293;-79
2023/08/27 02:10:32;;;;;;;4.77;4.57;;;16.40;70.00;;;;;;6200795;28;20830;-79
2023/08/27 02:13:35;;;;;;;4.53;4.33;;;16.40;69.90;;;;;;6217644;28;20327;-78
2023/08/27 02:16:39;;;;;;;4.73;4.53;;;16.40;70.00;;;;;;6216075;28;20266;-78
2023/08/27 02:19:42;;;;;;;4.37;4.20;;;16.40;70.00;;;;;;6194285;28;20239;-80
2023/08/27 02:22:46;;;;;;;4.50;4.30;;;16.40;69.90;;;;;;6202356;28;20487;-79
2023/08/27 02:25:49;;;;;;;4.27;4.17;;;16.40;69.80;;;;;;6216967;28;20259;-75
2023/08/27 02:28:54;;;;;;;5.00;4.70;;;16.40;69.80;;;;;;6211857;28;20338;-78
2023/08/27 02:31:57;;;;;;;5.10;4.87;;;16.40;69.70;;;;;;6210304;28;20239;-78
2023/08/27 02:35:00;;;;;;;5.13;4.83;;;16.40;69.80;;;;;;6209857;28;20239;-78
2023/08/27 02:38:05;;;;;;;5.20;5.00;;;16.40;69.90;;;;;;6214739;28;20242;-78
2023/08/27 02:41:08;;;;;;;4.50;4.23;;;16.40;69.90;;;;;;6205071;28;20325;-78
2023/08/27 02:44:11;;;;;;;4.53;4.40;;;16.40;69.90;;;;;;6215510;28;20235;-79
2023/08/27 02:47:14;;;;;;;4.03;3.93;;;16.40;69.90;;;;;;6215495;28;20861;-78
2023/08/27 02:50:17;;;;;;;4.63;4.43;;;16.40;70.00;;;;;;6210460;28;20238;-77
2023/08/27 02:53:21;;;;;;;4.47;4.30;;;16.40;70.20;;;;;;6201949;28;20246;-79
2023/08/27 02:56:24;;;;;;;4.67;4.47;;;16.40;70.30;;;;;;6218576;28;20239;-78
2023/08/27 02:59:27;;;;;;;4.80;4.50;;;16.40;70.20;;;;;;6197960;28;20748;-79
2023/08/27 03:02:30;;;;;;;5.47;5.17;;;16.30;70.30;;;;;;6214779;28;20301;-77
2023/08/27 03:05:34;;;;;;;4.57;4.37;;;16.30;70.20;;;;;;6201837;28;20239;-80
2023/08/27 03:08:38;;;;;;;5.30;5.00;;;16.30;70.20;;;;;;6210646;28;20244;-77
2023/08/27 03:11:41;;;;;;;5.10;4.90;;;16.40;70.20;;;;;;6193565;28;20243;-79
2023/08/27 03:14:45;;;;;;;4.27;4.07;;;16.30;70.20;;;;;;6201875;28;20240;-80
2023/08/27 03:17:49;;;;;;;4.70;4.60;;;16.30;70.30;;;;;;6209913;28;20241;-79
2023/08/27 03:20:52;;;;;;;5.00;4.70;;;16.30;70.40;;;;;;6200744;28;20243;-80
2023/08/27 03:23:57;;;;;;;4.50;4.40;;;16.20;70.40;;;;;;6204023;28;20714;-78
2023/08/27 03:27:00;;;;;;;4.60;4.40;;;16.20;70.40;;;;;;6207496;28;20227;-83
2023/08/27 03:30:04;;;;;;;4.73;4.43;;;16.20;70.40;;;;;;6206875;28;20258;-82
2023/08/27 03:33:07;;;;;;;4.17;4.00;;;16.20;70.30;;;;;;6190990;28;20250;-84
2023/08/27 03:36:10;;;;;;;4.57;4.43;;;16.20;70.50;;;;;;6206743;28;20235;-81
2023/08/27 03:39:15;;;;;;;3.90;3.80;;;16.20;70.50;;;;;;6205736;28;20763;-83
2023/08/27 03:42:18;;;;;;;4.30;4.20;;;16.20;70.60;;;;;;6209640;28;20242;-82
2023/08/27 03:45:22;;;;;;;4.57;4.40;;;16.10;70.70;;;;;;6207169;28;20241;-83
2023/08/27 03:48:25;;;;;;;4.90;4.70;;;16.10;70.90;;;;;;6208193;28;20731;-81
2023/08/27 03:51:29;;;;;;;4.70;4.50;;;16.10;71.00;;;;;;6172586;28;20250;-82
2023/08/27 03:54:34;;;;;;;4.40;4.20;;;16.10;71.00;;;;;;6181670;28;20250;-83
2023/08/27 03:57:38;;;;;;;5.17;4.97;;;16.10;70.90;;;;;;6170846;28;20259;-80
2023/08/27 04:00:41;;;;;;;5.00;4.80;;;16.20;70.90;;;;;;6189226;28;20712;-81
2023/08/27 04:03:47;;;;;;;5.23;5.03;;;16.10;70.80;;;;;;6204472;28;20242;-82
2023/08/27 04:06:50;;;;;;;5.00;4.80;;;16.20;70.80;;;;;;6208176;28;20238;-83
2023/08/27 04:09:54;;;;;;;5.23;5.03;;;16.20;70.90;;;;;;6196350;28;20258;-80
2023/08/27 04:12:58;;;;;;;5.17;5.07;;;16.20;71.00;;;;;;6187794;28;20251;-83
2023/08/27 04:16:04;;;;;;;5.73;5.30;;;16.20;71.00;;;;;;6175328;28;20240;-82
2023/08/27 04:19:08;;;;;;;5.57;5.20;;;16.30;71.10;;;;;;6189301;28;20330;-81
2023/08/27 04:22:11;;;;;;;6.07;5.77;;;16.40;71.40;;;;;;6176037;28;20456;-83
2023/08/27 04:25:17;;;;;;;6.77;6.37;;;16.40;71.70;;;;;;6178197;28;20247;-83
2023/08/27 04:28:20;;;;;;;7.63;7.03;;;16.40;71.80;;;;;;6193629;28;20231;-82
2023/08/27 04:31:23;;;;;;;6.47;6.10;;;16.40;71.90;;;;;;6207291;28;20326;-84
2023/08/27 04:34:28;;;;;;;6.33;6.00;;;16.40;71.80;;;;;;6202847;28;20238;-83
2023/08/27 04:37:31;;;;;;;6.30;5.90;;;16.40;71.70;;;;;;6207055;28;20236;-83
2023/08/27 04:40:36;;;;;;;6.60;6.20;;;16.40;71.70;;;;;;6207317;28;20235;-82
2023/08/27 04:43:39;;;;;;;6.50;6.10;;;16.40;71.70;;;;;;6209044;28;20519;-81
2023/08/27 04:46:42;;;;;;;6.63;6.20;;;16.40;71.60;;;;;;6208020;28;20323;-81
2023/08/27 04:49:46;;;;;;;7.13;6.63;;;16.40;71.60;;;;;;6198072;28;20294;-85
2023/08/27 04:52:51;;;;;;;6.13;5.87;;;16.40;71.50;;;;;;6207145;28;20251;-80
2023/08/27 04:55:56;;;;;;;6.40;5.90;;;16.40;71.50;;;;;;6203364;28;20727;-82
2023/08/27 04:58:59;;;;;;;8.00;7.40;;;16.50;71.50;;;;;;6202763;28;20230;-81
2023/08/27 05:02:02;;;;;;;8.20;7.50;;;16.60;71.30;;;;;;6206841;28;20253;-83
2023/08/27 05:05:07;;;;;;;6.60;6.20;;;16.60;71.20;;;;;;6202567;28;20331;-82
2023/08/27 05:08:10;;;;;;;6.87;6.37;;;16.60;71.00;;;;;;6205261;28;20239;-82
2023/08/27 05:11:16;;;;;;;7.00;6.53;;;16.70;71.00;;;;;;6200840;28;20691;-83
2023/08/27 05:14:19;;;;;;;7.07;6.57;;;16.70;71.10;;;;;;6208591;28;20246;-80
2023/08/27 05:17:22;;;;;;;7.17;6.77;;;16.70;71.10;;;;;;6205795;28;20250;-81
2023/08/27 05:20:25;;;;;;;6.27;5.97;;;16.70;71.40;;;;;;6207002;28;20235;-82
2023/08/27 05:23:29;;;;;;;7.10;6.70;;;16.80;71.40;;;;;;6207969;28;20242;-84
2023/08/27 05:26:34;;;;;;;6.70;6.20;;;16.80;71.40;;;;;;6205044;28;20742;-83
2023/08/27 05:29:37;;;;;;;7.23;6.70;;;16.90;71.40;;;;;;6204300;28;20289;-81
2023/08/27 05:32:40;;;;;;;6.73;6.33;;;17.00;71.40;;;;;;6212302;28;20865;-82
2023/08/27 05:35:43;;;;;;;7.27;6.57;;;17.10;71.50;;;;;;6202853;28;20236;-82
2023/08/27 05:38:47;;;;;;;6.90;6.50;;;17.20;71.20;;;;;;6194300;28;20243;-80
2023/08/27 05:41:51;;;;;;;6.33;5.93;;;17.20;70.90;;;;;;6196147;28;20790;-84
2023/08/27 05:44:55;;;;;;;7.30;6.90;;;17.20;70.50;;;;;;6185815;28;20228;-83
2023/08/27 05:47:58;;;;;;;6.90;6.50;;;17.30;70.40;;;;;;6187221;28;20283;-84
2023/08/27 05:51:03;;;;;;;6.57;6.27;;;17.40;70.30;;;;;;6204659;28;20330;-80
2023/08/27 05:54:06;;;;;;;6.10;5.80;;;17.50;70.30;;;;;;6174658;28;20232;-84
2023/08/27 05:57:10;;;;;;;7.40;6.77;;;17.60;70.10;;;;;;6190086;28;20751;-80
2023/08/27 06:00:15;;;;;;;5.80;5.53;;;17.60;69.30;;;;;;6188336;28;20332;-84
2023/08/27 06:03:18;;;;;;;6.73;6.30;;;17.70;69.30;;;;;;6205579;28;20290;-82
2023/08/27 06:06:21;;;;;;;6.70;6.40;;;17.80;69.20;;;;;;6202888;28;20726;-84
2023/08/27 06:09:24;;;;;;;7.03;6.47;;;17.90;69.00;;;;;;6206861;28;20239;-83
2023/08/27 06:12:29;;;;;;;6.53;6.17;;;18.00;68.20;;;;;;6215227;28;20244;-81
2023/08/27 06:15:34;;;;;;;8.10;7.50;;;18.00;68.20;;;;;;6210795;28;20250;-85
2023/08/27 06:18:37;;;;;;;6.83;6.30;;;18.10;68.00;;;;;;6207273;28;20227;-83
2023/08/27 06:21:40;;;;;;;6.33;5.80;;;18.10;68.30;;;;;;6205660;28;20244;-83
2023/08/27 06:24:44;;;;;;;5.53;5.20;;;18.20;68.00;;;;;;6213796;28;20756;-87
2023/08/27 06:27:48;;;;;;;11.07;6.10;;;18.30;67.80;;;;;;6215006;28;20247;-86
2023/08/27 06:30:52;;;;;;;6.20;5.80;;;18.30;67.80;;;;;;6213088;28;20235;-82
2023/08/27 06:33:55;;;;;;;5.93;5.63;;;18.50;67.30;;;;;;6208046;28;20236;-82
2023/08/27 06:36:58;;;;;;;7.30;6.67;;;18.50;67.20;;;;;;6210230;28;20758;-83
2023/08/27 06:40:01;;;;;;;6.70;6.30;;;18.60;67.10;;;;;;6192899;28;20236;-82
2023/08/27 06:43:06;;;;;;;5.57;5.20;;;18.70;66.10;;;;;;6185038;28;20743;-83
2023/08/27 06:46:11;;;;;;;5.90;5.40;;;18.80;66.10;;;;;;6186433;28;20929;-84
2023/08/27 06:49:14;;;;;;;5.00;4.80;;;18.90;65.60;;;;;;6182761;28;20243;-81
2023/08/27 06:52:18;;;;;;;5.10;4.80;;;19.00;65.70;;;;;;6187176;28;20255;-82
2023/08/27 06:55:23;;;;;;;5.63;5.23;;;19.00;65.70;;;;;;6189221;28;20228;-82
2023/08/27 06:58:28;;;;;;;5.00;4.73;;;19.10;65.20;;;;;;6178615;28;20831;-84
2023/08/27 07:01:31;;;;;;;5.83;5.33;;;19.20;64.70;;;;;;6187924;28;20630;-84
2023/08/27 07:04:34;;;;;;;5.13;4.83;;;19.30;63.90;;;;;;6187784;28;20735;-84
2023/08/27 07:07:38;;;;;;;5.30;4.97;;;19.30;63.70;;;;;;6184777;28;20327;-82
2023/08/27 07:10:41;;;;;;;5.70;4.57;;;19.30;63.70;;;;;;6184052;28;20236;-84
2023/08/27 07:13:46;;;;;;;4.50;4.30;;;19.30;63.70;;;;;;6180471;28;20236;-84
2023/08/27 07:16:51;;;;;;;5.23;4.70;;;19.20;63.00;;;;;;6182221;28;20314;-81
2023/08/27 07:19:54;;;;;;;4.03;3.93;;;19.20;62.80;;;;;;6188951;28;20246;-82
2023/08/27 07:22:58;;;;;;;5.00;4.60;;;19.20;63.20;;;;;;6179336;28;20324;-83
2023/08/27 07:26:03;;;;;;;4.30;4.00;;;19.30;63.00;;;;;;6187589;28;20243;-83
2023/08/27 07:29:08;;;;;;;5.47;5.17;;;19.50;63.10;;;;;;6187554;28;20244;-83
2023/08/27 07:32:11;;;;;;;5.30;4.87;;;19.60;63.00;;;;;;6181992;28;20717;-84
2023/08/27 07:35:14;;;;;;;3.73;3.57;;;19.70;61.70;;;;;;6183190;28;20337;-82
2023/08/27 07:38:17;;;;;;;3.60;3.50;;;19.70;61.30;;;;;;6182016;28;20244;-83
2023/08/27 07:41:20;;;;;;;4.33;3.93;;;19.90;60.60;;;;;;6181841;28;20231;-80
2023/08/27 07:44:25;;;;;;;4.23;4.03;;;20.00;61.30;;;;;;6178017;28;20251;-82
2023/08/27 07:47:28;;;;;;;4.30;4.10;;;20.00;60.60;;;;;;6205582;28;20231;-83
2023/08/27 07:50:31;;;;;;;4.60;4.30;;;20.10;61.00;;;;;;6195313;28;20236;-84
2023/08/27 07:53:35;;;;;;;4.63;4.23;;;20.30;60.90;;;;;;6203984;28;20235;-84
2023/08/27 07:56:38;;;;;;;4.33;4.13;;;20.60;60.10;;;;;;6207893;28;20251;-82
2023/08/27 07:59:44;;;;;;;3.67;3.57;;;20.80;59.30;;;;;;6200013;28;20243;-80
2023/08/27 08:02:47;;;;;;;4.60;4.10;;;20.90;59.10;;;;;;6206363;28;20735;-83
2023/08/27 08:05:51;;;;;;;3.93;3.60;;;21.00;58.30;;;;;;6209655;28;20231;-84
2023/08/27 08:08:54;;;;;;;4.00;3.70;;;21.10;59.00;;;;;;6201483;28;20238;-85
2023/08/27 08:11:58;;;;;;;4.00;3.60;;;21.30;59.00;;;;;;6204805;28;20235;-80
2023/08/27 08:15:02;;;;;;;3.73;3.43;;;21.50;57.60;;;;;;6208290;28;20238;-83
2023/08/27 08:18:05;;;;;;;4.73;4.33;;;21.70;56.60;;;;;;6194216;28;20235;-82
2023/08/27 08:21:09;;;;;;;3.70;3.40;;;21.80;56.80;;;;;;6203814;28;20731;-84
2023/08/27 08:24:13;;;;;;;3.60;3.40;;;21.90;56.70;;;;;;6200482;28;20747;-84
2023/08/27 08:27:18;;;;;;;3.10;3.00;;;22.00;56.50;;;;;;6212334;28;20236;-84
2023/08/27 08:30:23;;;;;;;3.23;3.13;;;22.20;55.80;;;;;;6211988;28;20251;-83
2023/08/27 08:33:26;;;;;;;3.17;3.07;;;22.20;56.00;;;;;;6203130;28;20649;-82
2023/08/27 08:36:29;;;;;;;3.60;3.30;;;22.10;56.10;;;;;;6201289;28;20227;-83
2023/08/27 08:39:36;;;;;;;4.57;3.20;;;22.20;56.00;;;;;;6201191;28;20763;-82
2023/08/27 08:42:47;;;;;;;3.33;3.03;;;22.10;55.20;;;;;;6199341;28;20245;-84
2023/08/27 08:46:03;;;;;;;4.00;3.47;;;22.00;55.30;;;;;;6206264;28;20243;-82
2023/08/27 08:49:12;;;;;;;3.67;3.37;;;21.90;56.00;;;;;;6203821;28;20239;-81
2023/08/27 08:52:19;;;;;;;3.10;3.00;;;21.90;55.70;;;;;;6209480;28;20240;-81
2023/08/27 08:55:26;;;;;;;3.53;3.33;;;21.70;55.40;;;;;;6205126;28;20639;-83
2023/08/27 08:58:35;;;;;;;3.60;3.30;;;21.60;56.40;;;;;;6203338;28;20760;-81
2023/08/27 09:01:40;;;;;;;2.77;2.70;;;21.50;56.10;;;;;;6203706;28;20242;-82
2023/08/27 09:04:43;;;;;;;3.70;3.40;;;21.50;56.50;;;;;;6222127;28;20254;-82
2023/08/27 09:07:48;;;;;;;3.20;3.10;;;21.70;56.80;;;;;;6200708;28;20239;-82
2023/08/27 09:10:52;;;;;;;3.50;3.40;;;21.70;57.10;;;;;;6207196;28;20261;-81
2023/08/27 09:13:57;;;;;;;3.63;3.33;;;21.90;56.90;;;;;;6204285;28;20778;-82
2023/08/27 09:17:03;;;;;;;3.50;3.20;;;21.90;56.50;;;;;;6209575;28;20235;-82
2023/08/27 09:20:09;;;;;;;4.13;3.87;;;21.90;57.50;;;;;;6208297;28;20255;-82
2023/08/27 09:23:13;;;;;;;3.47;3.37;;;21.90;57.90;;;;;;6219047;28;20235;-81
2023/08/27 09:26:17;;;;;;;3.50;3.40;;;21.90;57.00;;;;;;6200487;28;20244;-77
2023/08/27 09:29:22;;;;;;;3.37;3.20;;;21.90;57.50;;;;;;6215757;28;20231;-78
2023/08/27 09:32:26;;;;;;;3.37;3.07;;;21.90;57.70;;;;;;6207671;28;20243;-78
2023/08/27 09:35:40;;;;;;;3.10;3.00;;;21.80;57.50;;;;;;6216656;28;20738;-76
2023/08/27 09:38:45;;;;;;;3.37;3.17;;;21.90;57.50;;;;;;6206592;28;20248;-78
2023/08/27 09:41:48;;;;;;;3.40;3.30;;;21.90;57.00;;;;;;6203181;28;20724;-78
2023/08/27 09:44:53;;;;;;;2.93;2.83;;;21.90;57.20;;;;;;6209243;28;20236;-79
2023/08/27 09:47:58;;;;;;;3.20;3.00;;;21.90;58.20;;;;;;6215822;28;20239;-79
2023/08/27 09:51:11;;;;;;;3.20;3.00;;;22.00;57.20;;;;;;6214925;28;20322;-81
2023/08/27 09:54:15;;;;;;;2.93;2.80;;;22.10;56.60;;;;;;6213856;28;20234;-81
2023/08/27 09:57:19;;;;;;;3.77;3.43;;;22.20;56.10;;;;;;6215192;28;20234;-81
2023/08/27 10:00:24;;;;;;;3.27;2.93;;;22.20;54.90;;;;;;6208106;28;20227;-82
2023/08/27 10:03:30;;;;;;;3.40;3.03;;;22.20;54.80;;;;;;6205729;28;20246;-83
2023/08/27 10:06:35;;;;;;;3.00;2.73;;;22.10;55.90;;;;;;6203170;28;20252;-79
2023/08/27 10:09:38;;;;;;;3.30;3.00;;;22.20;55.00;;;;;;6202361;28;20250;-82
2023/08/27 10:12:42;;;;;;;3.97;3.60;;;22.20;54.80;;;;;;6212930;28;20931;-81
2023/08/27 10:15:46;;;;;;;3.30;3.10;;;22.30;54.70;;;;;;6206113;28;20275;-76
2023/08/27 10:18:50;;;;;;;4.20;3.30;;;22.30;55.00;;;;;;6202318;28;20243;-75
2023/08/27 10:21:54;;;;;;;3.37;3.20;;;22.50;54.50;;;;;;6213069;28;20246;-75
2023/08/27 10:24:58;;;;;;;3.17;3.07;;;22.70;55.10;;;;;;6206164;28;20810;-76
2023/08/27 10:28:03;;;;;;;3.30;3.20;;;22.80;54.60;;;;;;6214638;28;20236;-75
2023/08/27 10:31:06;;;;;;;3.60;3.40;;;22.90;54.40;;;;;;6214601;28;20238;-74
2023/08/27 10:34:11;;;;;;;3.30;3.13;;;23.00;53.00;;;;;;6207670;28;20389;-76
2023/08/27 10:37:15;;;;;;;3.20;3.00;;;22.80;52.90;;;;;;6214228;28;20239;-76
2023/08/27 10:40:19;;;;;;;3.70;3.40;;;22.80;53.50;;;;;;6210814;28;20290;-77
2023/08/27 10:43:23;;;;;;;3.23;3.03;;;22.70;53.00;;;;;;6204821;28;20238;-78
2023/08/27 10:46:26;;;;;;;3.67;3.43;;;22.50;54.00;;;;;;6215862;28;20231;-78
2023/08/27 10:49:36;;;;;;;3.17;3.00;;;22.40;54.30;;;;;;6219035;28;20239;-76
2023/08/27 10:52:52;;;;;;;4.40;2.60;;;22.50;53.30;;;;;;6212098;28;20250;-77
2023/08/27 10:55:55;;;;;;;2.90;2.77;;;22.50;53.90;;;;;;6204911;28;20228;-76
2023/08/27 10:58:59;;;;;;;3.03;2.83;;;22.60;54.10;;;;;;6214079;28;20235;-77
2023/08/27 11:02:08;;;;;;;3.13;2.73;;;22.70;54.00;;;;;;6205330;28;20239;-77
2023/08/27 11:05:13;;;;;;;3.43;3.23;;;22.80;54.80;;;;;;6221731;28;20851;-75
2023/08/27 11:08:17;;;;;;;3.13;2.93;;;22.90;54.60;;;;;;6204928;28;20236;-77
2023/08/27 11:11:25;;;;;;;2.63;2.53;;;23.00;54.60;;;;;;6213877;28;20741;-78
2023/08/27 11:14:28;;;;;;;3.20;3.00;;;23.10;53.20;;;;;;6210430;28;20231;-76
2023/08/27 11:17:33;;;;;;;3.10;3.00;;;23.00;53.60;;;;;;6212454;28;20231;-78
2023/08/27 11:20:38;;;;;;;3.57;3.33;;;22.80;53.70;;;;;;6215514;28;20322;-79
2023/08/27 11:23:45;;;;;;;3.40;3.27;;;22.70;55.20;;;;;;6196011;28;20752;-75
2023/08/27 11:26:50;;;;;;;3.13;3.03;;;22.60;55.10;;;;;;6204828;28;20243;-76
2023/08/27 11:29:55;;;;;;;3.87;3.23;;;22.40;55.30;;;;;;6206237;28;20231;-78
2023/08/27 11:32:59;;;;;;;3.87;3.30;;;22.40;55.20;;;;;;6213671;28;20235;-76
2023/08/27 11:36:04;;;;;;;3.83;3.27;;;22.30;54.60;;;;;;6208421;28;20968;-76
2023/08/27 11:39:07;;;;;;;3.20;3.00;;;22.20;55.10;;;;;;6189672;28;20251;-75
2023/08/27 11:42:12;;;;;;;3.13;3.03;;;22.20;55.00;;;;;;6182511;28;20748;-76
2023/08/27 11:45:16;;;;;;;4.10;3.70;;;22.20;54.90;;;;;;6215049;28;20326;-78
2023/08/27 11:48:19;;;;;;;2.97;2.97;;;22.30;55.20;;;;;;6210936;28;20246;-77
2023/08/27 11:51:26;;;;;;;3.80;3.60;;;22.30;56.50;;;;;;6211626;28;20239;-78
2023/08/27 11:54:31;;;;;;;3.30;3.20;;;22.20;55.10;;;;;;6204777;28;20235;-77
2023/08/27 11:57:35;;;;;;;3.33;3.20;;;22.20;55.70;;;;;;6201135;28;20239;-76
2023/08/27 12:00:42;;;;;;;3.33;3.13;;;22.20;56.20;;;;;;6210599;28;20801;-75
2023/08/27 12:03:49;;;;;;;3.57;3.33;;;22.20;56.50;;;;;;6204937;28;20329;-76
2023/08/27 12:06:56;;;;;;;3.47;3.33;;;22.10;56.70;;;;;;6213510;28;20223;-76
2023/08/27 12:10:05;;;;;;;3.13;2.93;;;22.10;56.90;;;;;;6214715;28;20313;-75
2023/08/27 12:13:09;;;;;;;3.47;3.27;;;22.00;56.10;;;;;;6203699;28;20247;-75
2023/08/27 12:16:15;;;;;;;3.37;3.17;;;22.00;56.00;;;;;;6208987;28;20243;-76
2023/08/27 12:19:20;;;;;;;3.83;3.57;;;22.00;56.50;;;;;;6210999;28;20295;-84
2023/08/27 12:22:25;;;;;;;3.57;3.43;;;22.20;56.40;;;;;;6211605;28;20234;-83
2023/08/27 12:25:29;;;;;;;3.60;3.40;;;22.40;57.30;;;;;;6202093;28;20338;-82
2023/08/27 12:28:33;;;;;;;2.97;2.87;;;22.50;56.20;;;;;;6202670;28;20265;-82
2023/08/27 12:31:36;;;;;;;3.73;3.43;;;22.50;56.90;;;;;;6205461;28;20263;-82
2023/08/27 12:34:40;;;;;;;3.13;3.03;;;22.50;56.20;;;;;;6217445;28;20266;-84
2023/08/27 12:37:44;;;;;;;2.63;2.53;;;22.50;56.00;;;;;;6211359;28;20724;-84
2023/08/27 12:40:48;;;;;;;2.97;2.80;;;22.30;55.70;;;;;;6208431;28;20258;-84
2023/08/27 12:43:53;;;;;;;3.30;2.97;;;22.30;54.70;;;;;;6207024;28;20239;-83
2023/08/27 12:46:56;;;;;;;2.30;2.20;;;22.10;55.10;;;;;;6208564;28;20847;-84
2023/08/27 12:50:00;;;;;;;2.50;2.50;;;22.00;54.70;;;;;;6204257;28;20240;-84
2023/08/27 12:53:06;;;;;;;2.43;2.33;;;21.90;54.60;;;;;;6197017;28;20250;-83
2023/08/27 12:56:10;;;;;;;2.57;2.57;;;21.70;55.00;;;;;;6208519;28;20794;-82
2023/08/27 12:59:14;;;;;;;2.90;2.67;;;21.70;55.00;;;;;;6209458;28;20255;-84
2023/08/27 13:02:17;;;;;;;2.73;2.73;;;21.60;55.50;;;;;;6203536;28;20747;-83
2023/08/27 13:05:20;;;;;;;3.27;3.17;;;21.50;56.30;;;;;;6210230;28;20235;-83
2023/08/27 13:08:25;;;;;;;2.80;2.63;;;21.50;57.00;;;;;;6198790;28;20621;-82
2023/08/27 13:11:29;;;;;;;2.90;2.70;;;21.50;55.70;;;;;;6212235;28;20246;-83
2023/08/27 13:14:33;;;;;;;3.00;2.90;;;21.50;55.40;;;;;;6200211;28;20235;-84
2023/08/27 13:17:36;;;;;;;3.07;2.87;;;21.40;55.40;;;;;;6199111;28;20843;-84
2023/08/27 13:20:39;;;;;;;3.00;2.90;;;21.40;56.00;;;;;;6205833;28;20247;-84
2023/08/27 13:23:45;;;;;;;3.23;3.03;;;21.30;57.00;;;;;;6212792;28;20235;-84
2023/08/27 13:26:48;;;;;;;2.90;2.80;;;21.20;55.50;;;;;;6210099;28;20224;-82
2023/08/27 13:29:51;;;;;;;3.10;3.00;;;21.10;56.40;;;;;;6213431;28;20333;-83
2023/08/27 13:32:55;;;;;;;3.93;3.00;;;21.10;56.90;;;;;;6208513;28;20234;-82
2023/08/27 13:35:59;;;;;;;3.57;3.47;;;21.20;56.90;;;;;;6213898;28;20227;-83
2023/08/27 13:39:04;;;;;;;3.90;3.40;;;21.30;56.90;;;;;;6218473;28;20235;-83
2023/08/27 13:42:08;;;;;;;3.17;3.07;;;21.40;56.70;;;;;;6206765;28;20243;-82
2023/08/27 13:45:11;;;;;;;3.30;3.10;;;21.50;56.80;;;;;;6202328;28;20723;-83
2023/08/27 13:48:15;;;;;;;3.03;2.87;;;21.40;56.70;;;;;;6207927;28;20251;-81
2023/08/27 13:51:19;;;;;;;2.90;2.80;;;21.50;57.70;;;;;;6196785;28;20265;-81
2023/08/27 13:54:24;;;;;;;3.23;3.03;;;21.50;56.30;;;;;;6218413;28;20251;-83
2023/08/27 13:57:27;;;;;;;3.37;3.10;;;21.50;56.20;;;;;;6211201;28;20255;-84
2023/08/27 14:00:33;;;;;;;3.00;2.63;;;21.60;57.00;;;;;;6207096;28;20235;-81
2023/08/27 14:03:38;;;;;;;3.97;3.67;;;21.60;56.30;;;;;;6209881;28;20243;-82
2023/08/27 14:06:41;;;;;;;3.17;2.90;;;21.50;55.70;;;;;;6210181;28;20246;-83
2023/08/27 14:09:46;;;;;;;3.10;3.00;;;21.50;56.00;;;;;;6204304;28;20240;-82
2023/08/27 14:12:50;;;;;;;2.60;2.60;;;21.40;56.10;;;;;;6206273;28;20649;-84
2023/08/27 14:15:55;;;;;;;3.20;2.90;;;21.40;56.30;;;;;;6209066;28;20622;-84
2023/08/27 14:18:59;;;;;;;2.63;2.47;;;21.40;55.80;;;;;;6209893;28;20246;-82
2023/08/27 14:22:02;;;;;;;2.70;2.60;;;21.30;56.20;;;;;;6210664;28;20224;-82
2023/08/27 14:25:08;;;;;;;3.10;3.00;;;21.30;55.30;;;;;;6214829;28;20371;-83
2023/08/27 14:28:11;;;;;;;2.60;2.50;;;21.10;55.60;;;;;;6213209;28;20246;-83
2023/08/27 14:31:14;;;;;;;2.60;2.50;;;21.10;55.90;;;;;;6212580;28;20254;-83
2023/08/27 14:34:17;;;;;;;3.00;2.93;;;21.10;56.40;;;;;;6206909;28;20255;-80
2023/08/27 14:37:21;;;;;;;2.40;2.20;;;21.10;56.70;;;;;;6215059;28;20243;-79
2023/08/27 14:40:25;;;;;;;3.63;3.07;;;21.00;56.90;;;;;;6217599;28;20740;-82
2023/08/27 14:43:28;;;;;;;2.80;2.70;;;21.00;57.30;;;;;;6216550;28;20287;-83
2023/08/27 14:46:31;;;;;;;3.80;3.67;;;20.90;58.00;;;;;;6200539;28;20313;-80
2023/08/27 14:49:38;;;;;;;4.53;4.33;;;20.80;57.90;;;;;;6216144;28;20361;-80
2023/08/27 14:52:41;;;;;;;5.17;4.77;;;20.60;58.70;;;;;;6209360;28;20251;-80
2023/08/27 14:55:45;;;;;;;4.77;4.50;;;20.50;58.00;;;;;;6208336;28;20653;-79
2023/08/27 14:58:52;;;;;;;4.13;3.93;;;20.30;58.60;;;;;;6206060;28;20244;-79
2023/08/27 15:01:55;;;;;;;3.87;3.63;;;20.10;58.70;;;;;;6209127;28;20247;-78
2023/08/27 15:04:58;;;;;;;5.60;5.30;;;19.90;59.60;;;;;;6195426;28;20232;-82
2023/08/27 15:08:02;;;;;;;5.17;4.87;;;19.60;60.70;;;;;;6215549;28;20247;-81
2023/08/27 15:11:07;;;;;;;4.20;3.87;;;19.60;61.90;;;;;;6204642;28;20306;-82
2023/08/27 15:14:10;;;;;;;9.23;8.27;;;19.50;62.10;;;;;;6209570;28;20255;-82
2023/08/27 15:17:14;;;;;;;5.30;4.90;;;19.50;62.20;;;;;;6210740;28;20273;-75
2023/08/27 15:20:18;;;;;;;4.00;3.70;;;19.50;62.60;;;;;;6198613;28;20869;-77
2023/08/27 15:23:21;;;;;;;3.83;3.70;;;19.50;64.50;;;;;;6201909;28;20249;-77
2023/08/27 15:26:25;;;;;;;3.87;3.77;;;19.40;63.80;;;;;;6196765;28;20984;-76
2023/08/27 15:29:29;;;;;;;3.67;3.57;;;19.30;63.90;;;;;;6220319;28;20236;-75
2023/08/27 15:32:32;;;;;;;3.37;3.27;;;19.30;64.40;;;;;;6190214;28;20784;-76
2023/08/27 15:35:37;;;;;;;3.60;3.40;;;19.20;65.30;;;;;;6203388;28;20245;-76
2023/08/27 15:38:42;;;;;;;3.87;3.67;;;19.20;65.60;;;;;;6210333;28;20450;-74
2023/08/27 15:41:46;;;;;;;5.50;5.10;;;19.20;66.60;;;;;;6219079;28;20735;-75
2023/08/27 15:44:50;;;;;;;5.40;5.10;;;19.20;66.80;;;;;;6197970;28;20239;-77
2023/08/27 15:47:53;;;;;;;5.60;5.10;;;19.20;67.00;;;;;;6205698;28;20316;-76
2023/08/27 15:50:59;;;;;;;8.00;7.30;;;19.10;67.20;;;;;;6204509;28;20719;-75
2023/08/27 15:54:02;;;;;;;6.87;6.27;;;19.00;67.70;;;;;;6201043;28;20227;-76
2023/08/27 15:57:07;;;;;;;6.07;5.53;;;18.90;67.70;;;;;;6203490;28;20239;-75
2023/08/27 16:00:11;;;;;;;5.73;5.33;;;18.90;67.50;;;;;;6217588;28;20246;-75